createdAt,value
2022-11-08T00:01:43.228Z,4.97
2022-11-08T00:04:13.591Z,5.50
2022-11-08T00:07:00.488Z,2.70
2022-11-08T00:09:48.238Z,8.67
2022-11-08T00:12:34.896Z,6.70
2022-11-08T00:15:03.975Z,3.63
2022-11-08T00:17:32.870Z,10.80
2022-11-08T00:20:01.429Z,7.53
2022-11-08T00:22:32.243Z,7.50
2022-11-08T00:25:02.094Z,2.00
2022-11-08T00:27:30.767Z,10.60
2022-11-08T00:29:59.257Z,7.53
2022-11-08T00:32:28.736Z,3.13
2022-11-08T00:34:57.269Z,8.07
2022-11-08T00:37:25.730Z,10.30
2022-11-08T00:39:54.226Z,3.10
2022-11-08T00:42:24.116Z,2.83
2022-11-08T00:44:52.664Z,4.80
2022-11-08T00:47:21.101Z,4.63
2022-11-08T00:49:49.619Z,11.27
2022-11-08T00:52:18.076Z,6.93
2022-11-08T00:54:46.552Z,12.63
2022-11-08T00:57:14.981Z,4.50
2022-11-08T00:59:44.785Z,4.93
2022-11-08T01:02:13.341Z,7.43
2022-11-08T01:04:41.946Z,5.77
2022-11-08T01:07:10.446Z,3.43
2022-11-08T01:09:38.892Z,4.53
2022-11-08T01:12:07.505Z,8.07
2022-11-08T01:14:36.017Z,5.73
2022-11-08T01:17:05.807Z,9.50
2022-11-08T01:19:34.295Z,3.80
2022-11-08T01:22:02.748Z,6.10
2022-11-08T01:24:31.176Z,11.10
2022-11-08T01:26:59.710Z,8.20
2022-11-08T01:29:28.184Z,3.97
2022-11-08T01:31:56.758Z,5.43
2022-11-08T01:34:26.673Z,10.87
2022-11-08T01:36:55.277Z,9.17
2022-11-08T01:39:23.778Z,5.20
2022-11-08T01:41:52.260Z,2.60
2022-11-08T01:44:21.753Z,8.23
2022-11-08T01:46:50.386Z,13.97
2022-11-08T01:49:41.058Z,7.40
2022-11-08T01:52:21.747Z,6.97
2022-11-08T01:54:57.877Z,9.13
2022-11-08T01:57:32.299Z,3.20
2022-11-08T02:00:06.074Z,6.10
2022-11-08T02:02:36.256Z,8.23
2022-11-08T02:05:24.671Z,9.33
2022-11-08T02:07:58.185Z,7.47
2022-11-08T02:10:31.108Z,9.97
2022-11-08T02:13:04.673Z,10.70
2022-11-08T02:15:33.646Z,5.90
2022-11-08T02:18:02.429Z,6.03
2022-11-08T02:20:32.975Z,4.33
2022-11-08T02:23:10.189Z,12.73
2022-11-08T02:25:40.091Z,3.67
2022-11-08T02:28:08.577Z,6.13
2022-11-08T02:30:37.883Z,3.93
2022-11-08T02:33:16.923Z,13.87
2022-11-08T02:35:49.416Z,4.63
2022-11-08T02:38:18.743Z,6.83
2022-11-08T02:40:49.672Z,4.03
2022-11-08T02:43:18.148Z,7.87
2022-11-08T02:45:46.990Z,5.00
2022-11-08T02:48:17.992Z,2.80
2022-11-08T02:50:46.991Z,10.03
2022-11-08T02:53:15.635Z,18.87
2022-11-08T02:55:44.854Z,12.53
2022-11-08T02:58:15.115Z,10.87
2022-11-08T03:00:43.878Z,2.73
2022-11-08T03:03:12.446Z,10.60
2022-11-08T03:05:42.721Z,7.00
2022-11-08T03:08:11.287Z,5.37
2022-11-08T03:10:39.782Z,3.30
2022-11-08T03:13:08.853Z,6.00
2022-11-08T03:15:38.719Z,49.17
2022-11-08T03:18:07.448Z,10.73
2022-11-08T03:20:35.963Z,10.60
2022-11-08T03:23:06.487Z,4.13
2022-11-08T03:25:35.519Z,5.17
2022-11-08T03:28:04.883Z,6.70
2022-11-08T03:30:33.423Z,7.40
2022-11-08T03:33:03.459Z,11.23
2022-11-08T03:35:32.375Z,5.50
2022-11-08T03:38:00.920Z,8.47
2022-11-08T03:40:29.537Z,7.60
2022-11-08T03:42:58.296Z,9.67
2022-11-08T03:45:26.909Z,10.73
2022-11-08T03:47:55.403Z,8.73
2022-11-08T03:50:25.651Z,8.90
2022-11-08T03:52:55.405Z,19.40
2022-11-08T03:55:25.838Z,9.70
2022-11-08T03:57:55.297Z,10.37
2022-11-08T04:00:25.369Z,13.13
2022-11-08T04:02:55.010Z,12.37
2022-11-08T04:05:24.836Z,7.17
2022-11-08T04:07:53.290Z,6.73
2022-11-08T04:10:21.786Z,9.90
2022-11-08T04:13:07.896Z,15.00
2022-11-08T04:15:36.403Z,9.83
2022-11-08T04:18:22.849Z,13.33
2022-11-08T04:21:10.338Z,10.90
2022-11-08T04:23:39.300Z,24.77
2022-11-08T04:26:11.683Z,8.30
2022-11-08T04:28:42.025Z,17.33
2022-11-08T04:31:13.046Z,12.13
2022-11-08T04:33:41.833Z,8.10
2022-11-08T04:36:13.823Z,10.67
2022-11-08T04:38:42.402Z,8.87
2022-11-08T04:41:13.651Z,9.57
2022-11-08T04:43:42.232Z,15.13
2022-11-08T04:46:12.584Z,7.77
2022-11-08T04:48:41.492Z,8.83
2022-11-08T04:51:13.959Z,7.50
2022-11-08T04:53:42.583Z,14.00
2022-11-08T04:56:13.178Z,12.93
2022-11-08T04:58:43.212Z,7.20
2022-11-08T05:01:13.419Z,13.17
2022-11-08T05:03:42.029Z,8.53
2022-11-08T05:06:15.179Z,10.20
2022-11-08T05:08:43.936Z,7.67
2022-11-08T05:11:14.154Z,12.30
2022-11-08T05:13:43.152Z,13.33
2022-11-08T05:16:14.597Z,20.50
2022-11-08T05:18:43.159Z,14.30
2022-11-08T05:21:30.956Z,10.20
2022-11-08T05:24:00.170Z,7.23
2022-11-08T05:26:29.955Z,13.80
2022-11-08T05:28:58.395Z,19.90
2022-11-08T05:31:26.852Z,13.83
2022-11-08T05:33:55.367Z,20.30
2022-11-08T05:36:25.117Z,20.90
2022-11-08T05:38:53.635Z,12.50
2022-11-08T05:41:23.678Z,33.83
2022-11-08T05:43:54.350Z,21.63
2022-11-08T05:46:24.039Z,26.47
2022-11-08T05:48:53.061Z,13.87
2022-11-08T05:51:21.750Z,22.20
2022-11-08T05:53:51.651Z,8.53
2022-11-08T05:56:20.335Z,12.10
2022-11-08T05:58:48.973Z,11.70
2022-11-08T06:01:19.003Z,14.87
2022-11-08T06:03:48.184Z,33.43
2022-11-08T06:06:18.559Z,15.57
2022-11-08T06:11:37.637Z,15.03
2022-11-08T06:14:06.524Z,12.40
2022-11-08T06:16:35.049Z,13.90
2022-11-08T06:19:03.516Z,17.10
2022-11-08T06:21:31.974Z,12.97
2022-11-08T06:24:00.493Z,10.10
2022-11-08T06:26:29.297Z,16.50
2022-11-08T06:28:59.129Z,8.17
2022-11-08T06:31:27.583Z,15.43
2022-11-08T06:33:56.031Z,13.40
2022-11-08T06:36:24.512Z,20.00
2022-11-08T06:38:55.996Z,11.13
2022-11-08T06:41:27.296Z,12.70
2022-11-08T06:43:58.285Z,13.80
2022-11-08T06:46:27.066Z,18.83
2022-11-08T06:48:55.536Z,14.50
2022-11-08T06:51:24.017Z,17.80
2022-11-08T06:53:52.474Z,12.37
2022-11-08T06:56:20.980Z,11.80
2022-11-08T06:58:49.485Z,10.13
2022-11-08T07:01:19.682Z,13.97
2022-11-08T07:03:48.129Z,18.93
2022-11-08T07:06:16.631Z,13.87
2022-11-08T07:08:45.076Z,10.73
2022-11-08T07:11:13.582Z,18.70
2022-11-08T07:13:42.049Z,19.77
2022-11-08T07:16:11.153Z,15.80
2022-11-08T07:18:41.213Z,19.03
2022-11-08T07:21:09.840Z,41.43
2022-11-08T07:23:38.251Z,45.60
2022-11-08T07:26:08.983Z,29.33
2022-11-08T07:28:37.664Z,28.07
2022-11-08T07:31:06.883Z,29.43
2022-11-08T07:33:35.682Z,17.67
2022-11-08T07:36:06.177Z,33.00
2022-11-08T07:38:34.711Z,29.80
2022-11-08T07:41:03.657Z,33.63
2022-11-08T07:43:32.442Z,24.37
2022-11-08T07:46:02.344Z,17.17
2022-11-08T07:48:31.811Z,21.20
2022-11-08T07:51:00.324Z,19.80
2022-11-08T07:53:30.545Z,18.97
2022-11-08T07:55:59.202Z,23.53
2022-11-08T07:58:27.698Z,24.07
2022-11-08T08:01:01.055Z,26.13
2022-11-08T08:03:29.714Z,18.77
2022-11-08T08:06:01.285Z,20.77
2022-11-08T08:08:31.886Z,19.43
2022-11-08T08:11:01.359Z,15.47
2022-11-08T08:13:30.150Z,14.30
2022-11-08T08:16:02.665Z,20.63
2022-11-08T08:18:31.572Z,16.03
2022-11-08T08:21:00.459Z,12.37
2022-11-08T08:23:30.352Z,11.93
2022-11-08T08:25:58.840Z,15.30
2022-11-08T08:28:27.354Z,12.00
2022-11-08T08:30:55.835Z,14.63
2022-11-08T08:33:29.114Z,14.93
2022-11-08T08:36:00.777Z,11.07
2022-11-08T08:38:31.388Z,13.43
2022-11-08T08:41:00.000Z,15.63
2022-11-08T08:43:28.809Z,12.63
2022-11-08T08:46:00.767Z,11.87
2022-11-08T08:48:29.368Z,14.50
2022-11-08T08:50:58.439Z,8.83
2022-11-08T08:53:27.311Z,14.87
2022-11-08T08:55:57.138Z,14.90
2022-11-08T08:58:25.617Z,14.03
2022-11-08T09:03:42.913Z,9.50
2022-11-08T09:06:11.838Z,22.67
2022-11-08T09:08:40.346Z,14.27
2022-11-08T09:11:10.226Z,7.93
2022-11-08T09:13:38.720Z,9.63
2022-11-08T09:16:08.057Z,12.90
2022-11-08T09:18:36.785Z,9.27
2022-11-08T09:21:05.500Z,11.00
2022-11-08T09:23:34.302Z,18.13
2022-11-08T09:26:04.663Z,14.80
2022-11-08T09:28:35.506Z,13.50
2022-11-08T09:31:05.543Z,12.77
2022-11-08T09:33:37.818Z,10.40
2022-11-08T09:36:08.584Z,12.47
2022-11-08T09:38:37.217Z,9.83
2022-11-08T09:41:44.389Z,17.50
2022-11-08T09:44:23.248Z,9.83
2022-11-08T09:46:54.791Z,13.60
2022-11-08T09:49:27.532Z,24.40
2022-11-08T09:51:56.284Z,15.67
2022-11-08T09:54:28.909Z,25.13
2022-11-08T09:56:57.591Z,20.70
2022-11-08T09:59:35.918Z,10.93
2022-11-08T10:02:14.541Z,12.67
2022-11-08T10:04:43.205Z,34.07
2022-11-08T10:07:24.937Z,65.83
2022-11-08T10:10:24.756Z,16.60
2022-11-08T10:13:02.797Z,12.47
2022-11-08T10:15:41.821Z,11.87
2022-11-08T10:18:43.295Z,12.13
2022-11-08T10:21:21.740Z,8.93
2022-11-08T10:23:57.743Z,11.40
2022-11-08T10:26:35.903Z,11.87
2022-11-08T10:29:09.672Z,13.50
2022-11-08T10:31:42.113Z,10.90
2022-11-08T10:34:19.745Z,15.47
2022-11-08T10:36:50.674Z,19.27
2022-11-08T10:39:24.016Z,7.80
2022-11-08T10:41:59.428Z,17.10
2022-11-08T10:44:28.942Z,6.80
2022-11-08T10:47:03.456Z,7.20
2022-11-08T10:49:35.327Z,8.80
2022-11-08T10:52:18.498Z,13.70
2022-11-08T10:54:51.461Z,14.47
2022-11-08T10:57:25.728Z,9.13
2022-11-08T10:59:55.186Z,12.83
2022-11-08T11:02:28.489Z,12.93
2022-11-08T11:05:24.385Z,11.20
2022-11-08T11:08:02.374Z,7.80
2022-11-08T11:10:33.472Z,12.03
2022-11-08T11:13:04.846Z,8.67
2022-11-08T11:15:35.562Z,14.83
2022-11-08T11:18:06.282Z,9.97
2022-11-08T11:20:35.230Z,9.87
2022-11-08T11:23:03.816Z,9.23
2022-11-08T11:25:32.380Z,6.93
2022-11-08T11:28:01.668Z,7.83
2022-11-08T11:30:32.783Z,12.93
2022-11-08T11:33:07.976Z,6.93
2022-11-08T11:35:43.201Z,17.87
2022-11-08T11:38:29.007Z,16.93
2022-11-08T11:41:08.323Z,6.10
2022-11-08T11:43:44.401Z,3.90
2022-11-08T11:46:21.377Z,7.50
2022-11-08T11:48:56.423Z,8.67
2022-11-08T11:51:31.648Z,5.33
2022-11-08T11:54:01.396Z,9.63
2022-11-08T11:56:42.731Z,4.20
2022-11-08T11:59:38.811Z,5.43
2022-11-08T12:02:39.052Z,5.40
2022-11-08T12:05:33.281Z,5.13
2022-11-08T12:08:23.981Z,4.53
2022-11-08T12:11:06.086Z,5.87
2022-11-08T12:13:53.957Z,4.00
2022-11-08T12:16:28.541Z,4.67
2022-11-08T12:19:22.186Z,3.43
2022-11-08T12:22:00.025Z,4.00
2022-11-08T12:24:43.372Z,8.47
2022-11-08T12:27:21.444Z,3.67
2022-11-08T12:29:57.901Z,4.77
2022-11-08T12:32:51.804Z,3.23
2022-11-08T12:35:29.579Z,3.43
2022-11-08T12:38:17.241Z,3.97
2022-11-08T12:40:55.015Z,3.20
2022-11-08T12:43:39.510Z,1.73
2022-11-08T12:46:13.071Z,9.00
2022-11-08T12:49:10.197Z,4.57
2022-11-08T12:51:52.495Z,18.70
2022-11-08T12:54:30.485Z,6.90
2022-11-08T12:57:03.733Z,8.70
2022-11-08T12:59:38.085Z,5.60
2022-11-08T13:02:14.340Z,5.87
2022-11-08T13:04:48.994Z,4.50
2022-11-08T13:07:25.003Z,2.50
2022-11-08T13:10:02.685Z,4.03
2022-11-08T13:12:41.547Z,4.60
2022-11-08T13:15:18.054Z,5.43
2022-11-08T13:18:20.361Z,8.90
2022-11-08T13:20:50.528Z,4.60
2022-11-08T13:23:26.462Z,5.00
2022-11-08T13:26:11.681Z,5.50
2022-11-08T13:28:45.236Z,5.60
2022-11-08T13:31:42.909Z,5.40
2022-11-08T13:34:28.438Z,4.67
2022-11-08T13:37:13.644Z,2.43
2022-11-08T13:40:10.486Z,3.97
2022-11-08T13:42:57.730Z,4.90
2022-11-08T13:45:32.663Z,3.67
2022-11-08T13:48:04.203Z,3.60
2022-11-08T13:50:52.445Z,3.80
2022-11-08T13:53:45.620Z,7.83
2022-11-08T13:56:47.008Z,5.10
2022-11-08T13:59:49.769Z,2.53
2022-11-08T14:02:37.132Z,2.07
2022-11-08T14:05:26.314Z,2.77
2022-11-08T14:08:20.310Z,8.00
2022-11-08T14:11:30.455Z,3.70
2022-11-08T14:14:35.078Z,5.50
2022-11-08T14:17:42.158Z,6.80
2022-11-08T14:20:34.991Z,7.90
2022-11-08T14:23:21.915Z,9.93
2022-11-08T14:25:54.586Z,4.50
2022-11-08T14:28:25.004Z,12.90
2022-11-08T14:30:54.261Z,4.10
2022-11-08T14:33:26.105Z,2.43
2022-11-08T14:36:00.442Z,6.90
2022-11-08T14:38:30.889Z,7.40
2022-11-08T14:41:01.813Z,6.70
2022-11-08T14:43:31.068Z,15.03
2022-11-08T14:46:00.249Z,3.83
2022-11-08T14:48:32.043Z,7.57
2022-11-08T14:51:01.363Z,3.07
2022-11-08T14:53:31.753Z,4.50
2022-11-08T14:56:09.216Z,22.53
2022-11-08T14:58:37.825Z,3.53
2022-11-08T15:01:08.102Z,3.30
2022-11-08T15:03:39.200Z,5.33
2022-11-08T15:06:14.353Z,5.03
2022-11-08T15:08:50.579Z,4.10
2022-11-08T15:11:31.068Z,5.87
2022-11-08T15:14:02.975Z,4.90
2022-11-08T15:16:41.136Z,6.63
2022-11-08T15:19:40.109Z,5.33
2022-11-08T15:22:24.409Z,5.90
2022-11-08T15:25:02.959Z,7.93
2022-11-08T15:27:32.256Z,16.57
2022-11-08T15:30:03.884Z,6.60
2022-11-08T15:32:37.912Z,7.47
2022-11-08T15:35:21.067Z,5.53
2022-11-08T15:37:52.787Z,7.70
2022-11-08T15:40:24.067Z,5.10
2022-11-08T15:42:53.964Z,4.87
2022-11-08T15:45:26.477Z,13.37
2022-11-08T15:48:02.615Z,7.77
2022-11-08T15:50:33.262Z,4.20
2022-11-08T15:53:03.088Z,9.27
2022-11-08T15:55:36.473Z,5.37
2022-11-08T15:58:05.968Z,9.00
2022-11-08T16:00:36.527Z,5.90
2022-11-08T16:03:05.519Z,9.37
2022-11-08T16:05:35.643Z,5.40
2022-11-08T16:08:04.134Z,11.47
2022-11-08T16:10:37.653Z,10.67
2022-11-08T16:13:07.041Z,5.47
2022-11-08T16:15:36.747Z,10.10
2022-11-08T16:18:06.222Z,9.03
2022-11-08T16:20:37.518Z,8.20
2022-11-08T16:23:09.070Z,10.50
2022-11-08T16:25:41.823Z,11.20
2022-11-08T16:28:20.754Z,13.67
2022-11-08T16:30:49.983Z,8.87
2022-11-08T16:33:21.863Z,9.30
2022-11-08T16:35:54.815Z,14.60
2022-11-08T16:38:27.424Z,12.83
2022-11-08T16:40:56.387Z,9.60
2022-11-08T16:43:25.156Z,16.67
2022-11-08T16:46:05.412Z,8.63
2022-11-08T16:48:36.895Z,6.87
2022-11-08T16:51:17.367Z,8.10
2022-11-08T16:53:46.307Z,15.83
2022-11-08T16:56:17.362Z,7.07
2022-11-08T16:58:47.828Z,8.80
2022-11-08T17:01:28.069Z,6.83
2022-11-08T17:03:58.263Z,11.77
2022-11-08T17:06:29.302Z,13.33
2022-11-08T17:09:00.456Z,13.30
2022-11-08T17:11:29.015Z,8.73
2022-11-08T17:13:57.852Z,12.10
2022-11-08T17:16:27.068Z,11.83
2022-11-08T17:18:55.911Z,15.33
2022-11-08T17:24:22.020Z,9.80
2022-11-08T17:26:51.683Z,11.33
2022-11-08T17:29:20.739Z,11.80
2022-11-08T17:31:50.484Z,14.50
2022-11-08T17:34:21.641Z,18.37
2022-11-08T17:36:55.924Z,9.40
2022-11-08T17:39:30.248Z,12.00
2022-11-08T17:42:00.144Z,9.40
2022-11-08T17:44:29.647Z,43.20
2022-11-08T17:46:58.391Z,40.67
2022-11-08T17:49:27.042Z,38.10
2022-11-08T17:51:55.798Z,142.47
2022-11-08T17:54:29.269Z,164.73
2022-11-08T17:56:58.178Z,124.70
2022-11-08T17:59:29.669Z,104.97
2022-11-08T18:01:58.466Z,82.77
2022-11-08T18:04:27.132Z,59.03
2022-11-08T18:06:55.707Z,55.60
2022-11-08T18:09:26.136Z,57.73
2022-11-08T18:11:55.920Z,36.97
2022-11-08T18:14:28.664Z,24.57
2022-11-08T18:16:58.076Z,36.50
2022-11-08T18:19:26.841Z,33.63
2022-11-08T18:21:55.363Z,25.43
2022-11-08T18:24:25.267Z,21.50
2022-11-08T18:26:53.864Z,21.80
2022-11-08T18:29:22.603Z,28.53
2022-11-08T18:31:51.202Z,21.90
2022-11-08T18:34:19.792Z,29.60
2022-11-08T18:36:49.248Z,18.10
2022-11-08T18:39:19.779Z,24.60
2022-11-08T18:41:50.028Z,29.60
2022-11-08T18:44:18.544Z,34.37
2022-11-08T18:46:47.701Z,40.90
2022-11-08T18:49:16.453Z,28.20
2022-11-08T18:51:45.127Z,27.87
2022-11-08T18:54:13.876Z,29.30
2022-11-08T18:56:42.512Z,23.27
2022-11-08T18:59:12.582Z,19.37
2022-11-08T19:01:41.433Z,27.03
2022-11-08T19:04:10.051Z,18.00
2022-11-08T19:06:38.699Z,18.07
2022-11-08T19:09:07.302Z,16.93
2022-11-08T19:11:36.548Z,19.70
2022-11-08T19:14:05.124Z,21.40
2022-11-08T19:16:35.431Z,41.27
2022-11-08T19:19:04.278Z,38.47
2022-11-08T19:21:34.432Z,32.83
2022-11-08T19:24:08.654Z,20.33
2022-11-08T19:26:38.446Z,20.23
2022-11-08T19:29:07.228Z,24.07
2022-11-08T19:31:39.049Z,31.00
2022-11-08T19:34:07.521Z,32.37
2022-11-08T19:36:40.464Z,31.27
2022-11-08T19:39:09.506Z,39.23
2022-11-08T19:41:38.228Z,37.70
2022-11-08T19:44:07.823Z,19.60
2022-11-08T19:46:39.124Z,19.73
2022-11-08T19:49:07.791Z,20.13
2022-11-08T19:51:36.933Z,17.20
2022-11-08T19:54:07.462Z,18.67
2022-11-08T19:57:04.089Z,15.03
2022-11-08T19:59:25.816Z,16.50
2022-11-08T20:01:56.088Z,19.30
2022-11-08T20:04:24.911Z,22.13
2022-11-08T20:06:53.691Z,21.40
2022-11-08T20:09:27.329Z,20.37
2022-11-08T20:11:58.661Z,30.50
2022-11-08T20:14:27.264Z,18.70
2022-11-08T20:16:57.062Z,23.27
2022-11-08T20:19:25.571Z,17.20
2022-11-08T20:21:56.631Z,25.33
2022-11-08T20:24:27.730Z,24.93
2022-11-08T20:26:56.349Z,18.27
2022-11-08T20:29:25.911Z,25.53
2022-11-08T20:31:56.854Z,22.83
2022-11-08T20:34:25.806Z,17.40
2022-11-08T20:36:54.446Z,21.23
2022-11-08T20:39:23.086Z,16.47
2022-11-08T20:41:51.712Z,17.40
2022-11-08T20:44:22.283Z,17.73
2022-11-08T20:46:51.679Z,21.03
2022-11-08T20:49:21.755Z,20.00
2022-11-08T20:51:50.633Z,18.13
2022-11-08T20:54:19.299Z,26.43
2022-11-08T20:56:47.851Z,30.73
2022-11-08T20:59:16.573Z,20.47
2022-11-08T21:01:45.764Z,18.10
2022-11-08T21:04:14.442Z,19.80
2022-11-08T21:07:59.439Z,20.83
2022-11-08T21:09:50.272Z,17.37
2022-11-08T21:12:19.608Z,19.47
2022-11-08T21:14:48.546Z,28.03
2022-11-08T21:17:22.295Z,20.40
2022-11-08T21:19:51.983Z,20.63
2022-11-08T21:22:22.180Z,16.87
2022-11-08T21:24:51.104Z,20.00
2022-11-08T21:27:19.859Z,22.30
2022-11-08T21:29:48.410Z,20.57
2022-11-08T21:32:16.933Z,17.40
2022-11-08T21:34:47.319Z,20.17
2022-11-08T21:37:16.300Z,17.87
2022-11-08T21:39:46.499Z,17.27
2022-11-08T21:42:15.158Z,27.60
2022-11-08T21:44:43.786Z,22.87
2022-11-08T21:47:12.346Z,22.90
2022-11-08T21:49:40.882Z,22.33
2022-11-08T21:52:09.472Z,18.83
2022-11-08T21:54:38.070Z,18.93
2022-11-08T21:57:08.260Z,17.87
2022-11-08T21:59:36.792Z,33.20
2022-11-08T22:02:05.473Z,34.53
2022-11-08T22:04:33.954Z,32.97
2022-11-08T22:07:02.485Z,39.33
2022-11-08T22:09:31.697Z,39.80
2022-11-08T22:12:00.220Z,35.63
2022-11-08T22:14:31.115Z,24.67
2022-11-08T22:16:59.660Z,38.43
2022-11-08T22:19:28.051Z,27.30
2022-11-08T22:21:56.625Z,17.00
2022-11-08T22:24:25.415Z,17.73
2022-11-08T22:26:54.360Z,21.27
2022-11-08T22:29:22.874Z,18.33
2022-11-08T22:31:53.160Z,22.17
2022-11-08T22:34:21.731Z,14.70
2022-11-08T22:36:50.972Z,19.40
2022-11-08T22:39:21.861Z,18.13
2022-11-08T22:41:53.025Z,22.70
2022-11-08T22:44:21.967Z,18.60
2022-11-08T22:46:51.925Z,13.33
2022-11-08T22:49:20.390Z,27.73
2022-11-08T22:51:48.847Z,16.37
2022-11-08T22:54:17.399Z,18.83
2022-11-08T22:56:45.895Z,17.10
2022-11-08T22:59:14.661Z,21.00
2022-11-08T23:01:43.863Z,20.23
2022-11-08T23:04:13.834Z,19.80
2022-11-08T23:06:42.677Z,18.13
2022-11-08T23:09:11.549Z,17.20
2022-11-08T23:11:57.755Z,16.93
2022-11-08T23:14:43.706Z,25.63
2022-11-08T23:17:12.343Z,15.23
2022-11-08T23:20:00.137Z,18.07
2022-11-08T23:22:46.266Z,17.00
2022-11-08T23:25:14.884Z,18.83
2022-11-08T23:28:00.724Z,12.07
2022-11-08T23:30:46.785Z,18.63
2022-11-08T23:33:15.231Z,16.03
2022-11-08T23:35:58.929Z,10.40
2022-11-08T23:38:27.419Z,12.43
2022-11-08T23:41:16.232Z,22.10
2022-11-08T23:44:02.458Z,12.03
2022-11-08T23:46:30.955Z,16.40
2022-11-08T23:48:59.787Z,12.73
2022-11-08T23:51:30.030Z,12.80
2022-11-08T23:53:58.763Z,14.87
2022-11-08T23:56:28.790Z,12.13
2022-11-08T23:59:00.775Z,20.27
